createdAt,value
2022-10-08T00:00:48.398Z,7.80
2022-10-08T00:04:50.067Z,7.90
2022-10-08T00:08:57.616Z,7.90
2022-10-08T00:13:03.850Z,8.00
2022-10-08T00:17:05.551Z,8.10
2022-10-08T00:21:11.189Z,8.30
2022-10-08T00:25:12.879Z,8.40
2022-10-08T00:29:17.316Z,8.40
2022-10-08T00:33:18.987Z,8.40
2022-10-08T00:37:20.821Z,8.40
2022-10-08T00:41:24.406Z,8.50
2022-10-08T00:45:26.365Z,8.50
2022-10-08T00:49:28.196Z,8.50
2022-10-08T00:53:30.279Z,8.60
2022-10-08T00:57:34.214Z,8.60
2022-10-08T01:01:35.945Z,8.70
2022-10-08T01:05:58.992Z,8.60
2022-10-08T01:10:25.165Z,8.60
2022-10-08T01:14:47.986Z,8.60
2022-10-08T01:19:00.159Z,8.60
2022-10-08T01:23:13.288Z,8.60
2022-10-08T01:27:32.343Z,8.60
2022-10-08T01:31:47.833Z,8.60
2022-10-08T01:35:56.179Z,8.60
2022-10-08T01:40:02.115Z,8.70
2022-10-08T01:44:17.998Z,8.80
2022-10-08T01:48:23.724Z,8.80
2022-10-08T01:52:28.878Z,8.90
2022-10-08T01:56:33.467Z,9.00
2022-10-08T02:00:38.204Z,9.00
2022-10-08T02:04:40.688Z,9.10
2022-10-08T02:08:43.855Z,9.10
2022-10-08T02:12:45.898Z,9.10
2022-10-08T02:17:00.643Z,9.10
2022-10-08T02:21:08.968Z,9.10
2022-10-08T02:25:16.651Z,9.20
2022-10-08T02:29:42.140Z,9.30
2022-10-08T02:34:01.403Z,9.40
2022-10-08T02:38:19.747Z,9.50
2022-10-08T02:42:24.280Z,9.70
2022-10-08T02:46:31.316Z,9.80
2022-10-08T02:50:36.267Z,10.00
2022-10-08T02:54:41.388Z,10.00
2022-10-08T02:58:44.074Z,10.20
2022-10-08T03:02:56.400Z,10.20
2022-10-08T03:06:59.817Z,10.30
2022-10-08T03:11:02.343Z,10.50
2022-10-08T03:15:04.868Z,10.40
2022-10-08T03:19:10.251Z,10.60
2022-10-08T03:23:15.919Z,10.50
2022-10-08T03:27:17.536Z,10.50
2022-10-08T03:31:19.725Z,10.40
2022-10-08T03:35:21.395Z,10.40
2022-10-08T03:39:23.136Z,10.40
2022-10-08T03:43:30.577Z,10.40
2022-10-08T03:47:32.295Z,10.40
2022-10-08T03:51:33.964Z,10.50
2022-10-08T03:55:35.745Z,10.50
2022-10-08T03:59:37.415Z,10.60
2022-10-08T04:03:39.220Z,10.60
2022-10-08T04:07:40.890Z,10.60
2022-10-08T04:11:42.633Z,10.60
2022-10-08T04:15:47.124Z,10.60
2022-10-08T04:19:48.788Z,10.60
2022-10-08T04:23:51.199Z,10.70
2022-10-08T04:27:52.894Z,10.80
2022-10-08T04:31:54.550Z,10.90
2022-10-08T04:36:00.133Z,10.70
2022-10-08T04:40:02.598Z,10.70
2022-10-08T04:44:04.299Z,10.70
2022-10-08T04:48:05.967Z,10.80
2022-10-08T04:52:07.694Z,10.80
2022-10-08T04:56:23.028Z,10.80
2022-10-08T05:00:24.713Z,10.80
2022-10-08T05:04:26.463Z,10.90
2022-10-08T05:08:29.276Z,10.90
2022-10-08T05:12:30.927Z,10.90
2022-10-08T05:16:32.777Z,10.90
2022-10-08T05:20:36.520Z,10.90
2022-10-08T05:24:38.188Z,10.80
2022-10-08T05:28:40.071Z,10.80
2022-10-08T05:32:41.796Z,10.80
2022-10-08T05:36:43.611Z,10.80
2022-10-08T05:40:45.254Z,10.80
2022-10-08T05:44:46.933Z,10.80
2022-10-08T05:48:52.076Z,10.80
2022-10-08T05:52:53.708Z,10.90
2022-10-08T05:56:55.342Z,10.90
2022-10-08T06:01:02.299Z,10.80
2022-10-08T06:05:04.232Z,10.80
2022-10-08T06:09:07.553Z,10.80
2022-10-08T06:13:09.216Z,10.80
2022-10-08T06:17:10.833Z,10.80
2022-10-08T06:21:14.988Z,10.80
2022-10-08T06:25:16.657Z,10.80
2022-10-08T06:29:18.631Z,10.80
2022-10-08T06:33:20.298Z,10.90
2022-10-08T06:37:21.962Z,11.00
2022-10-08T06:41:25.113Z,11.10
2022-10-08T06:45:26.808Z,11.10
2022-10-08T06:49:28.536Z,11.30
2022-10-08T06:53:30.799Z,11.40
2022-10-08T06:57:32.495Z,11.50
2022-10-08T07:01:35.429Z,11.50
2022-10-08T07:05:37.504Z,11.50
2022-10-08T07:09:39.176Z,11.50
2022-10-08T07:13:41.131Z,11.60
2022-10-08T07:17:42.795Z,11.60
2022-10-08T07:21:44.524Z,11.70
2022-10-08T07:26:06.261Z,11.70
2022-10-08T07:30:08.375Z,11.70
2022-10-08T07:34:13.675Z,11.80
2022-10-08T07:38:18.464Z,11.80
2022-10-08T07:42:20.347Z,11.90
2022-10-08T07:46:22.206Z,11.90
2022-10-08T07:50:24.389Z,12.00
2022-10-08T07:54:26.047Z,12.10
2022-10-08T07:58:27.717Z,12.10
2022-10-08T08:02:29.441Z,12.20
2022-10-08T08:06:33.285Z,12.20
2022-10-08T08:10:34.934Z,12.30
2022-10-08T08:14:36.587Z,12.40
2022-10-08T08:18:41.123Z,12.50
2022-10-08T08:22:42.788Z,12.60
2022-10-08T08:26:44.634Z,12.70
2022-10-08T08:30:46.390Z,12.70
2022-10-08T08:34:48.110Z,12.70
2022-10-08T08:38:49.725Z,12.80
2022-10-08T08:42:56.515Z,12.80
2022-10-08T08:47:16.291Z,12.80
2022-10-08T08:51:18.046Z,13.00
2022-10-08T08:55:26.538Z,13.00
2022-10-08T08:59:37.610Z,13.10
2022-10-08T09:04:21.601Z,13.30
2022-10-08T09:08:37.173Z,13.40
2022-10-08T09:12:43.805Z,13.70
2022-10-08T09:16:46.096Z,13.70
2022-10-08T09:20:48.056Z,13.50
2022-10-08T09:25:00.022Z,13.50
2022-10-08T09:29:03.794Z,13.90
2022-10-08T09:33:05.660Z,14.30
2022-10-08T09:37:19.850Z,14.40
2022-10-08T09:41:21.923Z,14.20
2022-10-08T09:45:40.910Z,14.20
2022-10-08T09:49:43.621Z,13.90
2022-10-08T09:53:54.848Z,14.70
2022-10-08T09:58:00.368Z,15.40
2022-10-08T10:02:07.606Z,16.00
2022-10-08T10:06:09.167Z,16.40
2022-10-08T10:10:25.872Z,16.50
2022-10-08T10:14:44.363Z,16.40
2022-10-08T10:18:59.984Z,15.80
2022-10-08T10:23:22.240Z,15.40
2022-10-08T10:27:42.919Z,14.80
2022-10-08T10:31:50.764Z,14.70
2022-10-08T10:35:55.950Z,14.80
2022-10-08T10:40:06.255Z,14.90
2022-10-08T10:44:15.827Z,15.00
2022-10-08T10:48:17.596Z,14.70
2022-10-08T10:52:56.782Z,14.70
2022-10-08T10:57:04.660Z,14.40
2022-10-08T11:01:20.528Z,14.20
2022-10-08T11:05:23.615Z,14.10
2022-10-08T11:09:42.652Z,14.10
2022-10-08T11:14:06.039Z,14.10
2022-10-08T11:18:39.129Z,14.20
2022-10-08T11:22:54.715Z,14.30
2022-10-08T11:27:15.055Z,14.40
2022-10-08T11:31:24.179Z,14.50
2022-10-08T11:36:02.968Z,14.80
2022-10-08T11:40:27.071Z,15.10
2022-10-08T11:44:30.136Z,15.30
2022-10-08T11:48:34.244Z,15.80
2022-10-08T11:52:37.086Z,15.60
2022-10-08T11:56:45.184Z,15.20
2022-10-08T12:00:47.405Z,14.80
2022-10-08T12:04:50.275Z,14.60
2022-10-08T12:08:58.048Z,14.60
2022-10-08T12:13:05.691Z,14.70
2022-10-08T12:17:08.571Z,14.90
2022-10-08T12:21:16.329Z,15.10
2022-10-08T12:25:41.319Z,14.90
2022-10-08T12:30:06.452Z,14.80
2022-10-08T12:34:17.178Z,14.80
2022-10-08T12:38:25.954Z,15.00
2022-10-08T12:42:32.876Z,15.30
2022-10-08T12:46:52.821Z,15.70
2022-10-08T12:50:54.644Z,15.60
2022-10-08T12:54:59.632Z,15.60
2022-10-08T12:59:04.285Z,15.70
2022-10-08T13:03:12.297Z,16.00
2022-10-08T13:07:28.915Z,16.00
2022-10-08T13:11:30.626Z,15.90
2022-10-08T13:15:34.499Z,16.10
2022-10-08T13:19:40.260Z,16.20
2022-10-08T13:23:44.306Z,16.20
2022-10-08T13:28:06.059Z,16.40
2022-10-08T13:32:13.668Z,16.80
2022-10-08T13:36:21.494Z,16.90
2022-10-08T13:40:25.035Z,16.90
2022-10-08T13:44:27.861Z,16.70
2022-10-08T13:48:29.716Z,16.70
2022-10-08T13:52:33.854Z,16.70
2022-10-08T13:56:35.519Z,16.80
2022-10-08T14:00:41.274Z,16.50
2022-10-08T14:04:43.040Z,16.60
2022-10-08T14:08:45.057Z,16.80
2022-10-08T14:12:46.821Z,16.90
2022-10-08T14:16:48.578Z,17.10
2022-10-08T14:20:51.440Z,17.20
2022-10-08T14:24:53.641Z,17.30
2022-10-08T14:28:55.331Z,17.10
2022-10-08T14:32:57.001Z,17.00
2022-10-08T14:36:59.185Z,17.00
2022-10-08T14:41:00.892Z,16.80
2022-10-08T14:45:02.590Z,16.60
2022-10-08T14:49:05.247Z,16.50
2022-10-08T14:53:07.061Z,16.30
2022-10-08T14:57:08.773Z,16.10
2022-10-08T15:01:10.421Z,16.30
2022-10-08T15:05:12.139Z,16.10
2022-10-08T15:09:16.573Z,15.90
2022-10-08T15:13:18.508Z,15.90
2022-10-08T15:17:20.290Z,15.90
2022-10-08T15:21:21.992Z,15.90
2022-10-08T15:25:23.654Z,15.80
2022-10-08T15:29:25.455Z,15.80
2022-10-08T15:33:27.134Z,15.90
2022-10-08T15:37:28.777Z,15.80
2022-10-08T15:41:34.559Z,15.50
2022-10-08T15:45:42.769Z,15.60
2022-10-08T15:49:46.079Z,15.40
2022-10-08T15:53:48.464Z,15.20
2022-10-08T15:57:50.178Z,15.00
2022-10-08T16:01:51.835Z,14.90
2022-10-08T16:05:59.523Z,14.90
2022-10-08T16:10:02.208Z,14.70
2022-10-08T16:14:08.410Z,14.60
2022-10-08T16:18:10.145Z,14.60
2022-10-08T16:22:11.783Z,14.40
2022-10-08T16:26:20.209Z,14.20
2022-10-08T16:30:21.946Z,14.10
2022-10-08T16:34:26.964Z,13.80
2022-10-08T16:38:29.952Z,13.90
2022-10-08T16:42:31.645Z,13.70
2022-10-08T16:46:36.241Z,13.60
2022-10-08T16:50:42.311Z,13.50
2022-10-08T16:54:43.986Z,13.30
2022-10-08T16:58:51.000Z,13.20
2022-10-08T17:02:52.717Z,13.10
2022-10-08T17:06:54.512Z,13.10
2022-10-08T17:10:56.515Z,12.90
2022-10-08T17:14:58.142Z,12.70
2022-10-08T17:19:01.197Z,12.40
2022-10-08T17:23:02.868Z,12.10
2022-10-08T17:27:04.741Z,11.90
2022-10-08T17:31:08.690Z,11.60
2022-10-08T17:35:10.398Z,11.30
2022-10-08T17:39:14.359Z,11.10
2022-10-08T17:43:16.009Z,10.90
2022-10-08T17:47:17.698Z,10.70
2022-10-08T17:51:22.333Z,10.40
2022-10-08T17:55:24.000Z,10.20
2022-10-08T17:59:25.714Z,10.10
2022-10-08T18:03:27.358Z,9.90
2022-10-08T18:07:29.016Z,9.80
2022-10-08T18:11:32.695Z,9.70
2022-10-08T18:15:36.693Z,9.60
2022-10-08T18:19:38.408Z,9.40
2022-10-08T18:23:43.575Z,9.30
2022-10-08T18:27:45.258Z,9.10
2022-10-08T18:31:46.931Z,9.00
2022-10-08T18:35:48.608Z,8.90
2022-10-08T18:39:50.271Z,8.80
2022-10-08T18:43:52.169Z,8.70
2022-10-08T18:47:53.865Z,8.60
2022-10-08T18:51:55.689Z,8.60
2022-10-08T18:55:57.372Z,8.50
2022-10-08T18:59:59.061Z,8.40
2022-10-08T19:04:02.716Z,8.30
2022-10-08T19:08:04.475Z,8.20
2022-10-08T19:12:07.882Z,8.10
2022-10-08T19:16:13.442Z,8.00
2022-10-08T19:20:15.384Z,8.00
2022-10-08T19:24:19.757Z,7.90
2022-10-08T19:28:21.425Z,7.90
2022-10-08T19:32:23.232Z,7.90
2022-10-08T19:36:26.338Z,7.80
2022-10-08T19:40:28.124Z,7.70
2022-10-08T19:44:29.820Z,7.60
2022-10-08T19:48:32.285Z,7.50
2022-10-08T19:52:33.922Z,7.50
2022-10-08T19:56:36.246Z,7.40
2022-10-08T20:00:37.969Z,7.30
2022-10-08T20:04:39.612Z,7.30
2022-10-08T20:08:41.471Z,7.30
2022-10-08T20:12:44.203Z,7.30
2022-10-08T20:16:45.898Z,7.20
2022-10-08T20:20:47.596Z,7.10
2022-10-08T20:24:49.252Z,7.10
2022-10-08T20:28:58.757Z,7.00
2022-10-08T20:33:00.486Z,7.00
2022-10-08T20:37:02.409Z,6.90
2022-10-08T20:41:04.572Z,6.90
2022-10-08T20:45:07.325Z,6.90
2022-10-08T20:49:11.487Z,6.80
2022-10-08T20:53:13.313Z,6.70
2022-10-08T20:57:17.271Z,6.70
2022-10-08T21:01:26.213Z,6.70
2022-10-08T21:05:27.848Z,6.60
2022-10-08T21:09:29.576Z,6.60
2022-10-08T21:13:32.997Z,6.50
2022-10-08T21:17:35.236Z,6.40
2022-10-08T21:21:36.928Z,6.40
2022-10-08T21:25:38.609Z,6.30
2022-10-08T21:29:40.213Z,6.20
2022-10-08T21:33:47.011Z,6.20
2022-10-08T21:37:48.708Z,6.20
2022-10-08T21:41:52.364Z,6.20
2022-10-08T21:45:58.859Z,6.30
2022-10-08T21:50:00.599Z,6.30
2022-10-08T21:54:04.521Z,6.20
2022-10-08T21:58:06.173Z,6.10
2022-10-08T22:02:07.907Z,6.10
2022-10-08T22:06:09.663Z,6.00
2022-10-08T22:10:11.310Z,6.00
2022-10-08T22:14:13.319Z,6.00
2022-10-08T22:18:14.999Z,5.90
2022-10-08T22:22:16.659Z,5.90
2022-10-08T22:26:21.108Z,5.90
2022-10-08T22:30:22.793Z,5.70
2022-10-08T22:34:24.441Z,5.80
2022-10-08T22:38:26.092Z,5.70
2022-10-08T22:42:27.758Z,5.60
2022-10-08T22:46:37.319Z,5.70
2022-10-08T22:50:38.993Z,5.60
2022-10-08T22:54:40.635Z,5.60
2022-10-08T22:58:43.048Z,5.60
2022-10-08T23:02:44.744Z,5.60
2022-10-08T23:06:46.401Z,5.50
2022-10-08T23:10:54.687Z,5.50
2022-10-08T23:14:56.367Z,5.40
2022-10-08T23:19:00.534Z,5.40
2022-10-08T23:23:02.195Z,5.40
2022-10-08T23:27:07.579Z,5.40
2022-10-08T23:31:12.376Z,5.40
2022-10-08T23:35:14.049Z,5.40
2022-10-08T23:39:17.032Z,5.40
2022-10-08T23:43:18.755Z,5.40
2022-10-08T23:47:20.398Z,5.30
2022-10-08T23:51:23.576Z,5.30
2022-10-08T23:55:25.259Z,5.20
2022-10-08T23:59:26.913Z,5.10
